Time;durP1;ratioP1;P1;durP2;ratioP2;P2;SDS_P1;SDS_P2;PMS_P1;PMS_P2;Temp;Humidity;BMP_temperature;BMP_pressure;BME280_temperature;BME280_humidity;BME280_pressure;Samples;Min_cycle;Max_cycle;Signal;HPM_P1;HPM_P2
2023/11/12 00:00:27;;;;;;;3.90;2.85;;;;;;;0.67;100.00;96972.09;1223294;75;2927925;-65
2023/11/12 00:03:00;;;;;;;5.05;3.10;;;;;;;0.72;100.00;96970.84;1223244;75;2941397;-65
2023/11/12 00:05:32;;;;;;;5.10;3.40;;;;;;;0.65;100.00;96966.41;1222393;75;2936306;-64
2023/11/12 00:08:06;;;;;;;5.20;3.40;;;;;;;0.84;100.00;96962.81;1223357;75;2920358;-65
2023/11/12 00:10:39;;;;;;;4.75;2.90;;;;;;;0.83;100.00;96974.00;1191454;75;5487517;-63
2023/11/12 00:13:12;;;;;;;3.55;2.45;;;;;;;0.73;100.00;96973.13;1222860;75;2925665;-61
2023/11/12 00:15:48;;;;;;;4.60;3.40;;;;;;;0.35;100.00;96965.63;1223493;75;2920629;-62
2023/11/12 00:18:20;;;;;;;7.50;4.60;;;;;;;0.26;100.00;96978.19;1222509;75;2904236;-65
2023/11/12 00:20:53;;;;;;;7.20;4.05;;;;;;;0.55;100.00;96975.50;1222819;75;2926312;-63
2023/11/12 00:23:27;;;;;;;6.80;4.25;;;;;;;0.34;100.00;96979.53;1223355;75;2924047;-64
2023/11/12 00:26:00;;;;;;;7.65;4.30;;;;;;;0.48;100.00;96986.47;1224648;75;2903306;-63
2023/11/12 00:28:33;;;;;;;6.80;4.20;;;;;;;0.25;100.00;96982.81;1222904;75;2924208;-62
2023/11/12 00:31:08;;;;;;;7.25;3.90;;;;;;;0.35;100.00;96986.44;1222689;75;2917260;-64
2023/11/12 00:33:41;;;;;;;6.25;4.10;;;;;;;0.42;100.00;96975.47;1222472;75;2925019;-65
2023/11/12 00:36:14;;;;;;;5.10;3.35;;;;;;;0.30;100.00;96982.31;1224801;75;2915538;-66
2023/11/12 00:38:46;;;;;;;5.45;3.30;;;;;;;0.48;100.00;96981.09;1224641;75;2913717;-64
2023/11/12 00:41:22;;;;;;;4.20;2.85;;;;;;;0.42;100.00;96976.22;1224391;75;2914382;-61
2023/11/12 00:43:56;;;;;;;3.85;2.55;;;;;;;0.39;100.00;96982.47;1224622;75;2916120;-66
2023/11/12 00:46:31;;;;;;;4.40;2.45;;;;;;;0.27;100.00;96985.84;1225064;75;2915729;-63
2023/11/12 00:49:04;;;;;;;4.10;2.55;;;;;;;0.46;100.00;96988.81;1224199;75;2923690;-65
2023/11/12 00:51:37;;;;;;;4.00;2.80;;;;;;;0.38;100.00;96982.88;1224216;75;2935572;-64
2023/11/12 00:54:10;;;;;;;7.15;3.80;;;;;;;0.25;100.00;96985.50;1224683;75;2914927;-67
2023/11/12 00:56:43;;;;;;;6.65;3.50;;;;;;;0.36;100.00;96988.69;1223728;75;2914033;-64
2023/11/12 00:59:15;;;;;;;6.15;3.10;;;;;;;0.27;100.00;96993.19;1224575;75;2917484;-64
2023/11/12 01:01:51;;;;;;;6.60;3.60;;;;;;;0.31;100.00;96994.56;1224734;75;2916331;-62
2023/11/12 01:04:23;;;;;;;5.85;3.35;;;;;;;0.31;100.00;96997.28;1224003;75;2924542;-64
2023/11/12 01:06:56;;;;;;;10.95;3.85;;;;;;;0.34;100.00;96998.38;1224696;75;2913877;-66
2023/11/12 01:09:29;;;;;;;5.15;3.15;;;;;;;0.14;100.00;96995.78;1224742;75;2935588;-64
2023/11/12 01:12:02;;;;;;;5.10;3.00;;;;;;;0.20;100.00;96994.84;1224001;75;2914331;-63
2023/11/12 01:14:34;;;;;;;4.50;2.75;;;;;;;0.21;100.00;96990.97;1223515;75;2922904;-65
2023/11/12 01:17:10;;;;;;;6.40;3.20;;;;;;;0.15;100.00;96995.38;1223921;75;2913026;-65
2023/11/12 01:19:43;;;;;;;8.95;5.35;;;;;;;-0.07;100.00;96997.06;1190636;75;5642314;-64
2023/11/12 01:22:18;;;;;;;11.75;6.65;;;;;;;-0.01;100.00;97006.13;1224934;75;2842738;-64
2023/11/12 01:24:51;;;;;;;8.30;4.70;;;;;;;0.24;100.00;97000.16;1224138;75;2941118;-64
2023/11/12 01:27:24;;;;;;;7.10;4.20;;;;;;;0.01;100.00;96994.97;1224008;75;2916156;-63
2023/11/12 01:29:57;;;;;;;4.95;3.40;;;;;;;0.12;100.00;96998.91;1224670;75;2938427;-63
2023/11/12 01:32:32;;;;;;;5.40;3.60;;;;;;;0.11;100.00;96989.31;1223676;75;2917149;-64
2023/11/12 01:35:06;;;;;;;4.95;3.00;;;;;;;0.07;100.00;96996.72;1225214;75;2916271;-62
2023/11/12 01:37:39;;;;;;;4.50;3.30;;;;;;;0.14;100.00;96993.09;1223546;75;2917854;-61
2023/11/12 01:40:16;;;;;;;5.10;3.15;;;;;;;0.09;100.00;96999.72;1223235;75;2938295;-65
2023/11/12 01:42:50;;;;;;;4.25;2.80;;;;;;;0.07;100.00;97007.47;1224308;75;2918354;-64
2023/11/12 01:45:23;;;;;;;3.90;2.70;;;;;;;-0.07;100.00;96992.44;1223721;75;2919045;-63
2023/11/12 01:47:58;;;;;;;6.00;3.25;;;;;;;0.09;100.00;96990.91;1223924;75;2948101;-65
2023/11/12 01:50:31;;;;;;;5.20;3.30;;;;;;;-0.06;100.00;96987.81;1222974;75;2922340;-66
2023/11/12 01:53:05;;;;;;;5.30;3.30;;;;;;;-0.08;100.00;96993.59;1223508;75;2934306;-64
2023/11/12 01:55:38;;;;;;;6.25;3.20;;;;;;;-0.05;100.00;96992.78;1224835;75;2914810;-66
2023/11/12 01:58:12;;;;;;;5.20;3.05;;;;;;;0.01;100.00;97003.03;1224436;75;2924453;-64
2023/11/12 02:00:45;;;;;;;5.05;3.25;;;;;;;-0.06;100.00;96993.94;1224967;75;2917006;-63
2023/11/12 02:03:23;;;;;;;5.20;2.85;;;;;;;0.03;100.00;96989.91;1223406;75;2923358;-65
2023/11/12 02:05:55;;;;;;;2.60;2.10;;;;;;;-0.01;100.00;96984.63;1225105;75;2914050;-64
2023/11/12 02:08:28;;;;;;;3.90;2.50;;;;;;;-0.04;100.00;96980.09;1224075;75;2936268;-63
2023/11/12 02:11:07;;;;;;;3.55;2.15;;;;;;;-0.05;100.00;96986.63;1223572;75;2920039;-64
2023/11/12 02:13:41;;;;;;;2.05;1.45;;;;;;;0.03;100.00;96990.66;1225248;75;2911684;-62
2023/11/12 02:16:14;;;;;;;2.50;1.85;;;;;;;0.03;100.00;96998.00;1223963;75;2923060;-64
2023/11/12 02:18:51;;;;;;;2.10;1.60;;;;;;;-0.08;100.00;96988.22;1225504;75;2914697;-62
2023/11/12 02:21:26;;;;;;;1.75;1.45;;;;;;;-0.11;100.00;96986.38;1224334;75;2925713;-63
2023/11/12 02:24:02;;;;;;;3.00;1.55;;;;;;;-0.21;100.00;96995.47;1224546;75;2928173;-63
2023/11/12 02:26:34;;;;;;;3.60;1.90;;;;;;;-0.13;100.00;96999.50;1223421;75;2918715;-64
2023/11/12 02:29:08;;;;;;;2.85;1.80;;;;;;;-0.06;100.00;96991.25;1224899;75;2926993;-66
2023/11/12 02:31:41;;;;;;;1.75;1.35;;;;;;;-0.17;100.00;96993.44;1223923;75;2957874;-67
2023/11/12 02:34:14;;;;;;;1.80;1.20;;;;;;;-0.11;100.00;96982.94;1224240;75;2917376;-63
2023/11/12 02:36:46;;;;;;;1.75;1.30;;;;;;;-0.10;100.00;96987.88;1225135;75;2913386;-63
2023/11/12 02:39:22;;;;;;;1.45;1.15;;;;;;;-0.20;100.00;96988.91;1225238;75;2916709;-63
2023/11/12 02:41:55;;;;;;;1.75;1.10;;;;;;;-0.18;100.00;96985.78;1224297;75;2914314;-63
2023/11/12 02:44:28;;;;;;;1.20;1.00;;;;;;;-0.15;100.00;96985.69;1223567;75;2925445;-63
2023/11/12 02:47:04;;;;;;;1.25;1.15;;;;;;;-0.24;100.00;96994.38;1223140;75;2913063;-64
2023/11/12 02:49:53;;;;;;;1.65;1.20;;;;;;;-0.43;100.00;96989.81;1224740;75;2929577;-67
2023/11/12 02:52:26;;;;;;;1.45;1.20;;;;;;;-0.24;100.00;96993.59;1225052;75;2914111;-63
2023/11/12 02:55:01;;;;;;;1.35;1.00;;;;;;;-0.25;100.00;96989.41;1224842;75;2917169;-62
2023/11/12 02:57:34;;;;;;;2.20;1.30;;;;;;;-0.32;100.00;96986.88;1223641;75;2923056;-64
2023/11/12 03:00:08;;;;;;;1.95;1.35;;;;;;;-0.37;100.00;96988.13;1225293;75;2911628;-61
2023/11/12 03:02:41;;;;;;;3.55;2.30;;;;;;;-0.52;100.00;96984.25;1224530;75;2920395;-63
2023/11/12 03:05:14;;;;;;;3.20;1.95;;;;;;;-0.30;100.00;96979.91;1224438;75;2928552;-63
2023/11/12 03:07:46;;;;;;;2.20;1.70;;;;;;;-0.28;100.00;96977.56;1225062;75;2913471;-64
2023/11/12 03:10:22;;;;;;;2.05;1.70;;;;;;;-0.29;100.00;96981.44;1225015;75;2912908;-64
2023/11/12 03:12:56;;;;;;;2.30;1.60;;;;;;;-0.45;100.00;96984.09;1224889;75;2914260;-62
2023/11/12 03:15:29;;;;;;;2.15;1.60;;;;;;;-0.58;100.00;96986.66;1225724;75;2917657;-62
2023/11/12 03:18:01;;;;;;;2.40;1.70;;;;;;;-0.54;100.00;96992.72;1225165;75;2926504;-63
2023/11/12 03:20:35;;;;;;;1.90;1.40;;;;;;;-0.45;100.00;96998.28;1225251;75;2924573;-61
2023/11/12 03:23:08;;;;;;;4.90;2.60;;;;;;;-0.81;100.00;96992.94;1224842;75;2952372;-63
2023/11/12 03:25:43;;;;;;;4.65;2.70;;;;;;;-0.51;100.00;96991.13;1224153;75;2917629;-63
2023/11/12 03:28:16;;;;;;;3.55;2.20;;;;;;;-0.45;100.00;96982.16;1224681;75;2922934;-64
2023/11/12 03:30:49;;;;;;;3.50;2.10;;;;;;;-0.50;100.00;96976.53;1223711;75;2911471;-63
2023/11/12 03:33:22;;;;;;;2.75;1.60;;;;;;;-0.53;100.00;96978.13;1224187;75;2918734;-65
2023/11/12 03:35:55;;;;;;;2.60;1.60;;;;;;;-0.77;100.00;96982.88;1223931;75;2921025;-66
2023/11/12 03:38:28;;;;;;;3.10;1.95;;;;;;;-0.66;100.00;96975.31;1224442;75;2928910;-64
2023/11/12 03:41:03;;;;;;;2.35;1.70;;;;;;;-0.69;100.00;96976.16;1223118;75;2919466;-63
2023/11/12 03:43:36;;;;;;;2.75;1.70;;;;;;;-0.68;100.00;96976.91;1224503;75;2933268;-61
2023/11/12 03:46:10;;;;;;;1.95;1.65;;;;;;;-0.83;100.00;96983.78;1224539;75;2916496;-64
2023/11/12 03:48:42;;;;;;;3.50;2.15;;;;;;;-1.09;100.00;96984.25;1224222;75;2924229;-67
2023/11/12 03:51:15;;;;;;;5.25;3.35;;;;;;;-0.92;100.00;96979.69;1225200;75;2914273;-61
2023/11/12 03:53:48;;;;;;;3.20;2.10;;;;;;;-0.76;100.00;96991.69;1222393;75;2992894;-62
2023/11/12 03:56:23;;;;;;;2.85;2.05;;;;;;;-0.75;100.00;96987.81;1224040;75;2919524;-62
2023/11/12 03:58:56;;;;;;;2.55;1.70;;;;;;;-0.73;100.00;96999.66;1225031;75;2915889;-64
2023/11/12 04:01:29;;;;;;;4.00;2.60;;;;;;;-0.82;100.00;96986.03;1225150;75;2919806;-65
2023/11/12 04:04:01;;;;;;;3.00;2.35;;;;;;;-0.83;100.00;96973.03;1222702;75;2931071;-62
2023/11/12 04:06:34;;;;;;;3.05;2.30;;;;;;;-0.87;100.00;96970.41;1223640;75;2927314;-64
2023/11/12 04:09:08;;;;;;;3.40;2.45;;;;;;;-1.09;100.00;96970.09;1224466;75;2893823;-62
2023/11/12 04:11:44;;;;;;;3.60;2.50;;;;;;;-0.98;100.00;96977.94;1223295;75;2918862;-62
2023/11/12 04:14:16;;;;;;;3.65;2.25;;;;;;;-1.25;100.00;96978.84;1223624;75;2921215;-63
2023/11/12 04:16:49;;;;;;;5.35;3.00;;;;;;;-1.07;100.00;96997.28;1224148;75;2921737;-63
2023/11/12 04:19:22;;;;;;;3.45;2.00;;;;;;;-0.89;100.00;96992.31;1224095;75;2925858;-65
2023/11/12 04:21:54;;;;;;;2.80;2.10;;;;;;;-0.82;100.00;97004.09;1223444;75;2920049;-63
2023/11/12 04:24:27;;;;;;;3.15;2.10;;;;;;;-1.17;100.00;97020.50;1224892;75;2919957;-65
2023/11/12 04:27:02;;;;;;;2.35;1.80;;;;;;;-0.97;100.00;97022.44;1224422;75;2916771;-63
2023/11/12 04:29:35;;;;;;;2.30;1.60;;;;;;;-0.72;100.00;97005.78;1224487;75;2920381;-62
2023/11/12 04:32:08;;;;;;;3.40;1.90;;;;;;;-0.79;100.00;97008.66;1225036;75;2912727;-63
2023/11/12 04:34:42;;;;;;;2.55;1.70;;;;;;;-0.73;100.00;97005.03;1224383;75;2915590;-62
2023/11/12 04:37:15;;;;;;;1.40;1.30;;;;;;;-0.62;100.00;97014.81;1223991;67;2918598;-64
2023/11/12 04:39:48;;;;;;;2.85;1.90;;;;;;;-1.02;100.00;97007.53;1225008;75;2917297;-63
2023/11/12 04:42:23;;;;;;;2.75;1.85;;;;;;;-0.79;100.00;97008.66;1223598;75;2915875;-62
2023/11/12 04:44:56;;;;;;;2.00;1.40;;;;;;;-0.75;100.00;97009.31;1224850;75;2921313;-63
2023/11/12 04:47:28;;;;;;;2.85;1.70;;;;;;;-0.92;100.00;97021.94;1224736;75;2912282;-63
2023/11/12 04:50:01;;;;;;;1.70;1.45;;;;;;;-0.82;100.00;97014.81;1223540;75;2923974;-63
2023/11/12 04:52:34;;;;;;;1.75;1.55;;;;;;;-1.07;100.00;97019.53;1224070;75;2921408;-63
2023/11/12 04:55:07;;;;;;;2.30;1.40;;;;;;;-0.89;100.00;97016.50;1224375;75;2928147;-64
2023/11/12 04:57:43;;;;;;;2.55;1.55;;;;;;;-0.89;100.00;97021.88;1223915;75;2918368;-66
2023/11/12 05:00:17;;;;;;;2.15;1.75;;;;;;;-1.32;100.00;97022.69;1223689;75;2917154;-62
2023/11/12 05:02:49;;;;;;;3.15;2.10;;;;;;;-1.15;100.00;97030.84;1224835;75;2919053;-63
2023/11/12 05:05:22;;;;;;;2.10;1.65;;;;;;;-1.08;100.00;97033.38;1223242;75;2925755;-64
2023/11/12 05:07:55;;;;;;;2.05;1.50;;;;;;;-0.99;100.00;97032.81;1224994;75;2919181;-65
2023/11/12 05:10:27;;;;;;;2.05;1.65;;;;;;;-1.08;100.00;97026.09;1224238;75;2926201;-62
2023/11/12 05:13:03;;;;;;;2.35;1.60;;;;;;;-1.03;100.00;97029.44;1222777;75;2921917;-62
2023/11/12 05:15:36;;;;;;;2.00;1.30;;;;;;;-1.05;100.00;97029.13;1224217;75;2913085;-63
2023/11/12 05:18:08;;;;;;;1.85;1.45;;;;;;;-1.04;100.00;97022.56;1224110;75;2916026;-63
2023/11/12 05:20:41;;;;;;;2.85;1.85;;;;;;;-1.05;100.00;97032.56;1223723;75;2922695;-65
2023/11/12 05:23:14;;;;;;;3.60;2.40;;;;;;;-1.34;100.00;97030.41;1223570;75;2929979;-62
2023/11/12 05:25:46;;;;;;;3.40;2.30;;;;;;;-1.02;100.00;97025.59;1224565;75;2922227;-65
2023/11/12 05:28:23;;;;;;;3.05;1.95;;;;;;;-1.01;100.00;97013.66;1223405;75;2921420;-62
2023/11/12 05:30:56;;;;;;;2.45;1.65;;;;;;;-1.08;100.00;97015.34;1223871;75;2930791;-61
2023/11/12 05:33:28;;;;;;;1.90;1.45;;;;;;;-1.05;100.00;97008.38;1224314;75;2919316;-63
2023/11/12 05:36:01;;;;;;;2.15;1.55;;;;;;;-1.05;100.00;96994.94;1223601;75;2921788;-65
2023/11/12 05:38:34;;;;;;;3.55;2.60;;;;;;;-1.01;100.00;96995.66;1222971;75;2923533;-65
2023/11/12 05:41:07;;;;;;;3.35;2.30;;;;;;;-0.98;100.00;97016.31;1223344;75;2923826;-66
2023/11/12 05:43:42;;;;;;;3.35;2.50;;;;;;;-1.00;100.00;97017.88;1222690;75;2924241;-66
2023/11/12 05:46:15;;;;;;;4.60;3.10;;;;;;;-1.10;100.00;97020.38;1223360;75;2917482;-63
2023/11/12 05:48:48;;;;;;;3.15;2.35;;;;;;;-1.07;100.00;97011.47;1224162;75;2921221;-66
2023/11/12 05:51:22;;;;;;;3.25;1.95;;;;;;;-0.94;100.00;97011.63;1223448;75;2922778;-62
2023/11/12 05:53:55;;;;;;;9.00;4.85;;;;;;;-1.04;100.00;97022.56;1224033;75;2920885;-63
2023/11/12 05:56:28;;;;;;;8.75;6.10;;;;;;;-0.93;100.00;97020.44;1223695;75;2920062;-63
2023/11/12 05:59:03;;;;;;;19.35;12.10;;;;;;;-1.09;100.00;97021.13;1223014;75;2912982;-67
2023/11/12 06:01:37;;;;;;;18.60;12.50;;;;;;;-1.03;100.00;97029.44;1223960;75;2925760;-64
2023/11/12 06:04:10;;;;;;;15.55;10.35;;;;;;;-1.00;100.00;97034.00;1222957;83;2930280;-64
2023/11/12 06:06:42;;;;;;;11.60;7.25;;;;;;;-0.91;100.00;97028.84;1222962;75;2928271;-68
2023/11/12 06:09:15;;;;;;;8.35;5.05;;;;;;;-1.05;100.00;97029.13;1223758;75;2911869;-63
2023/11/12 06:11:48;;;;;;;6.65;4.70;;;;;;;-0.86;100.00;97018.34;1223598;75;2922260;-64
2023/11/12 06:14:24;;;;;;;4.95;3.25;;;;;;;-0.98;100.00;97018.22;1223639;75;2923911;-64
2023/11/12 06:16:56;;;;;;;3.60;2.70;;;;;;;-0.92;100.00;97011.94;1223643;75;2927773;-64
2023/11/12 06:19:30;;;;;;;4.35;2.80;;;;;;;-0.90;100.00;97012.28;1223682;75;2920967;-62
2023/11/12 06:22:03;;;;;;;3.90;2.70;;;;;;;-1.17;100.00;97012.44;1222983;75;2919860;-65
2023/11/12 06:24:36;;;;;;;7.10;3.65;;;;;;;-1.11;100.00;97018.84;1224371;75;2923126;-63
2023/11/12 06:27:09;;;;;;;6.75;3.80;;;;;;;-0.84;100.00;97007.19;1224194;75;2919148;-64
2023/11/12 06:29:44;;;;;;;4.80;3.40;;;;;;;-0.74;100.00;97016.22;1222309;75;2937629;-64
2023/11/12 06:32:16;;;;;;;4.50;3.15;;;;;;;-0.67;100.00;97016.06;1224363;75;2921019;-65
2023/11/12 06:34:49;;;;;;;4.65;3.10;;;;;;;-0.68;100.00;97019.91;1222214;75;3017986;-63
2023/11/12 06:37:21;;;;;;;6.85;3.80;;;;;;;-0.84;100.00;97028.69;1223211;75;2925034;-64
2023/11/12 06:39:54;;;;;;;7.00;5.00;;;;;;;-0.54;100.00;97019.63;1223254;75;2942517;-61
2023/11/12 06:42:27;;;;;;;5.35;3.60;;;;;;;-0.16;100.00;97029.19;1222744;75;2919381;-61
2023/11/12 06:45:02;;;;;;;4.85;3.30;;;;;;;2.59;100.00;97020.69;1222610;67;2939177;-63
2023/11/12 06:47:35;;;;;;;3.85;2.80;;;;;;;5.26;85.39;97024.28;1224068;75;2917129;-63
2023/11/12 06:50:09;;;;;;;5.60;3.60;;;;;;;6.35;77.22;97018.13;1224000;75;2919869;-63
2023/11/12 06:52:42;;;;;;;4.85;3.05;;;;;;;8.00;71.03;97017.81;1222499;75;2929843;-63
2023/11/12 06:55:14;;;;;;;6.30;3.80;;;;;;;8.27;67.32;97033.84;1222922;75;2923190;-66
2023/11/12 06:57:47;;;;;;;7.05;4.70;;;;;;;8.03;66.03;97035.94;1224614;75;2924101;-63
2023/11/12 07:00:23;;;;;;;8.30;3.85;;;;;;;9.30;62.99;97042.72;1223932;75;2914475;-63
2023/11/12 07:02:57;;;;;;;5.50;3.75;;;;;;;9.47;60.57;97042.88;1224140;75;2916548;-63
2023/11/12 07:05:30;;;;;;;4.85;3.05;;;;;;;11.25;56.84;97048.38;1224039;75;2928261;-62
2023/11/12 07:08:04;;;;;;;3.60;2.45;;;;;;;11.93;54.31;97039.00;1224295;75;2915526;-69
2023/11/12 07:10:37;;;;;;;2.55;1.90;;;;;;;12.98;51.97;97052.19;1224627;75;2914751;-65
2023/11/12 07:13:10;;;;;;;2.50;1.85;;;;;;;14.78;48.87;97039.03;1223842;75;2919257;-62
2023/11/12 07:15:46;;;;;;;4.90;3.35;;;;;;;14.75;46.35;97045.59;1223258;75;2923613;-65
2023/11/12 07:18:19;;;;;;;3.75;2.65;;;;;;;14.59;46.55;97041.00;1224027;75;2920465;-63
2023/11/12 07:20:51;;;;;;;4.75;2.90;;;;;;;13.85;46.31;97041.69;1223619;75;2917156;-65
2023/11/12 07:23:26;;;;;;;8.95;5.60;;;;;;;13.09;48.86;97051.41;1224598;75;2914800;-63
2023/11/12 07:25:58;;;;;;;16.60;12.10;;;;;;;9.41;55.98;97057.75;1222689;75;2924262;-63
2023/11/12 07:28:31;;;;;;;11.10;8.50;;;;;;;7.28;61.47;97067.16;1223702;75;2923032;-65
2023/11/12 07:31:08;;;;;;;4.80;3.80;;;;;;;5.27;69.23;97068.47;1223921;75;2929427;-67
2023/11/12 07:33:41;;;;;;;4.15;2.85;;;;;;;6.03;69.50;97065.88;1224503;75;2914714;-62
2023/11/12 07:36:15;;;;;;;5.45;3.50;;;;;;;10.07;58.83;97058.78;1224403;75;2923433;-62
2023/11/12 07:38:48;;;;;;;6.25;4.70;;;;;;;10.01;57.60;97059.47;1224106;75;2912009;-64
2023/11/12 07:41:22;;;;;;;4.95;3.10;;;;;;;7.11;63.74;97083.19;1223153;75;2921299;-62
2023/11/12 07:43:55;;;;;;;5.70;3.30;;;;;;;6.86;65.65;97089.91;1223781;75;2924943;-65
2023/11/12 07:46:30;;;;;;;4.45;3.05;;;;;;;7.38;66.21;97099.28;1224423;75;2926893;-63
2023/11/12 07:49:03;;;;;;;7.70;3.90;;;;;;;7.72;64.18;97090.94;1224397;75;2924040;-62
2023/11/12 07:51:36;;;;;;;6.80;4.60;;;;;;;7.03;66.55;97096.41;1225282;75;2930308;-64
2023/11/12 07:54:09;;;;;;;5.70;4.05;;;;;;;7.41;66.43;97092.19;1224673;75;2919856;-65
2023/11/12 07:56:41;;;;;;;5.30;3.35;;;;;;;9.25;59.92;97083.63;1223839;75;2942725;-64
2023/11/12 07:59:14;;;;;;;5.10;3.20;;;;;;;9.79;58.63;97086.66;1224012;75;2919568;-63
2023/11/12 08:01:50;;;;;;;6.70;3.45;;;;;;;7.75;63.78;97090.78;1224401;75;2914506;-62
2023/11/12 08:04:23;;;;;;;5.50;3.85;;;;;;;9.07;61.72;97084.69;1223873;75;2920674;-67
2023/11/12 08:06:56;;;;;;;5.60;3.80;;;;;;;8.38;62.13;97087.03;1223667;75;2924292;-62
2023/11/12 08:09:28;;;;;;;5.35;3.55;;;;;;;10.08;60.02;97082.13;1223518;75;2924616;-61
2023/11/12 08:12:01;;;;;;;3.80;2.90;;;;;;;11.70;55.63;97081.34;1223832;75;2921357;-63
2023/11/12 08:14:34;;;;;;;4.50;3.25;;;;;;;12.53;53.04;97090.03;1222713;75;2943659;-64
2023/11/12 08:17:09;;;;;;;4.20;2.60;;;;;;;11.90;53.76;97085.88;1224975;75;2914831;-62
2023/11/12 08:19:41;;;;;;;3.60;2.35;;;;;;;12.84;53.02;97093.72;1224510;75;2925312;-67
2023/11/12 08:22:14;;;;;;;3.75;2.30;;;;;;;13.41;51.35;97084.00;1223652;75;2917811;-62
2023/11/12 08:24:47;;;;;;;3.10;2.25;;;;;;;13.49;51.73;97079.44;1225317;68;2931158;-64
2023/11/12 08:27:20;;;;;;;3.00;2.00;;;;;;;13.96;49.82;97078.63;1224984;75;2923813;-61
2023/11/12 08:29:52;;;;;;;2.55;2.20;;;;;;;12.65;54.35;97083.31;1224572;75;2915633;-62
2023/11/12 08:32:28;;;;;;;5.70;3.60;;;;;;;9.21;59.81;97086.56;1224166;75;2917650;-62
2023/11/12 08:35:01;;;;;;;6.85;3.75;;;;;;;10.11;59.24;97084.66;1224476;75;2928835;-64
2023/11/12 08:37:33;;;;;;;6.45;3.40;;;;;;;9.54;64.09;97082.69;1223841;75;2915949;-66
2023/11/12 08:40:07;;;;;;;4.55;3.40;;;;;;;9.54;61.32;97088.91;1223231;75;2927663;-64
2023/11/12 08:42:40;;;;;;;5.05;3.65;;;;;;;7.93;64.87;97094.53;1225157;75;2914587;-61
2023/11/12 08:45:13;;;;;;;5.70;4.10;;;;;;;7.33;67.78;97099.19;1224658;75;2918585;-61
2023/11/12 08:47:48;;;;;;;6.60;4.15;;;;;;;7.63;68.44;97103.44;1224718;75;2912093;-63
2023/11/12 08:50:21;;;;;;;5.90;4.50;;;;;;;7.08;71.99;97106.66;1224080;75;2923591;-65
2023/11/12 08:52:56;;;;;;;6.85;4.20;;;;;;;7.09;71.82;97110.13;1223875;75;2918228;-63
2023/11/12 08:55:29;;;;;;;6.85;4.20;;;;;;;7.73;70.86;97115.00;1224824;75;2917246;-63
2023/11/12 08:58:01;;;;;;;6.80;5.10;;;;;;;7.71;70.53;97111.25;1224351;75;2912301;-63
2023/11/12 09:00:34;;;;;;;6.85;4.50;;;;;;;8.62;69.98;97108.69;1223871;75;2920954;-67
2023/11/12 09:03:09;;;;;;;6.95;4.50;;;;;;;9.10;67.73;97111.03;1224353;75;2915812;-64
2023/11/12 09:05:42;;;;;;;7.90;4.35;;;;;;;8.74;65.48;97105.63;1224175;75;2918680;-63
2023/11/12 09:08:15;;;;;;;6.25;4.10;;;;;;;9.10;66.08;97097.38;1220745;75;3088707;-64
2023/11/12 09:10:48;;;;;;;5.90;4.05;;;;;;;10.24;65.20;97095.94;1224608;75;2921197;-62
2023/11/12 09:13:20;;;;;;;5.20;3.20;;;;;;;11.34;61.80;97094.00;1223932;75;2922009;-62
2023/11/12 09:15:53;;;;;;;3.80;2.70;;;;;;;12.03;57.45;97091.63;1223821;75;2923897;-66
2023/11/12 09:18:29;;;;;;;6.15;4.10;;;;;;;10.63;59.65;97087.25;1224221;75;2913047;-65
2023/11/12 09:21:02;;;;;;;5.50;3.80;;;;;;;11.12;61.10;97094.69;1223126;75;2917674;-65
2023/11/12 09:23:35;;;;;;;5.80;3.70;;;;;;;10.81;58.85;97088.81;1223754;75;2914433;-64
2023/11/12 09:26:08;;;;;;;6.00;3.90;;;;;;;12.73;54.55;97094.50;1224793;75;2921876;-64
2023/11/12 09:28:41;;;;;;;7.55;3.85;;;;;;;11.55;57.17;97095.28;1224279;75;2913750;-61
2023/11/12 09:31:13;;;;;;;5.95;4.15;;;;;;;12.19;57.05;97094.84;1223644;75;2930359;-63
2023/11/12 09:33:49;;;;;;;7.55;5.00;;;;;;;12.73;56.72;97092.50;1224038;75;2923036;-63
2023/11/12 09:36:22;;;;;;;6.80;3.90;;;;;;;13.42;54.04;97101.97;1222103;75;2916415;-64
2023/11/12 09:38:54;;;;;;;5.05;3.40;;;;;;;13.04;53.47;97093.41;1222786;75;2930239;-65
2023/11/12 09:41:28;;;;;;;4.75;3.30;;;;;;;14.37;52.29;97083.28;1225211;75;2917479;-62
2023/11/12 09:44:03;;;;;;;5.85;3.30;;;;;;;13.92;51.64;97083.66;1223334;75;2927226;-67
2023/11/12 09:46:36;;;;;;;4.85;3.25;;;;;;;12.74;52.96;97087.75;1224153;75;2930716;-65
2023/11/12 09:49:12;;;;;;;4.85;2.80;;;;;;;14.87;51.29;97082.78;1222546;75;2928454;-66
2023/11/12 09:51:45;;;;;;;4.55;3.20;;;;;;;13.32;52.19;97082.28;1223049;75;2931616;-65
2023/11/12 09:54:19;;;;;;;5.45;3.50;;;;;;;13.54;51.08;97080.66;1224771;75;2913939;-63
2023/11/12 09:56:52;;;;;;;4.80;3.70;;;;;;;15.67;50.16;97077.69;1224329;75;2916779;-66
2023/11/12 09:59:24;;;;;;;32.20;25.50;;;;;;;14.85;49.20;97073.53;1224397;75;2925621;-65
2023/11/12 10:01:57;;;;;;;16.85;12.75;;;;;;;17.41;47.09;97082.16;1224732;75;2925308;-64
2023/11/12 10:04:32;;;;;;;7.40;6.00;;;;;;;15.74;48.45;97071.59;1224804;75;2914602;-63
2023/11/12 10:07:07;;;;;;;4.50;3.50;;;;;;;15.50;48.64;97074.44;1224103;75;2920196;-67
2023/11/12 10:09:40;;;;;;;4.30;2.85;;;;;;;15.80;48.04;97068.75;1224048;75;2929066;-66
2023/11/12 10:12:13;;;;;;;4.25;2.80;;;;;;;15.92;47.20;97075.59;1223473;75;2928848;-64
2023/11/12 10:14:46;;;;;;;4.40;2.90;;;;;;;15.44;47.41;97068.25;1224201;75;2922890;-65
2023/11/12 10:17:18;;;;;;;5.50;3.40;;;;;;;14.81;48.45;97071.06;1224718;75;2911509;-66
2023/11/12 10:20:01;;;;;;;5.35;3.10;;;;;;;15.40;48.80;97067.84;1224225;75;2928689;-64
2023/11/12 10:22:42;;;;;;;4.35;2.70;;;;;;;14.76;49.44;97065.63;1223482;75;2922121;-63
2023/11/12 10:25:16;;;;;;;4.50;2.80;;;;;;;14.89;49.79;97060.22;1224515;75;2921345;-69
2023/11/12 10:27:56;;;;;;;3.80;2.90;;;;;;;15.09;49.54;97056.94;1224199;75;2917691;-63
2023/11/12 10:30:29;;;;;;;5.85;2.90;;;;;;;14.17;51.19;97057.69;1224624;75;2916108;-65
2023/11/12 10:33:19;;;;;;;3.80;2.70;;;;;;;14.54;51.64;97067.34;1224117;75;2912305;-66
2023/11/12 10:35:55;;;;;;;5.85;2.50;;;;;;;14.22;52.23;97054.13;1222646;75;2906523;-62
2023/11/12 10:38:28;;;;;;;3.65;2.40;;;;;;;14.05;51.48;97054.28;1225138;75;2924454;-64
2023/11/12 10:41:07;;;;;;;3.60;2.50;;;;;;;14.60;51.37;97048.75;1225368;75;2921500;-63
2023/11/12 10:43:40;;;;;;;3.30;2.25;;;;;;;15.71;49.98;97053.34;1224854;75;2930157;-62
2023/11/12 10:46:13;;;;;;;4.15;2.10;;;;;;;15.16;49.03;97039.06;1225067;75;2912365;-64
2023/11/12 10:48:49;;;;;;;4.25;2.65;;;;;;;14.31;50.49;97042.03;1225149;75;2907717;-67
2023/11/12 10:51:25;;;;;;;3.05;2.05;;;;;;;14.30;49.62;97040.53;1224815;75;2910277;-66
2023/11/12 10:54:00;;;;;;;3.25;2.00;;;;;;;15.28;48.14;97042.41;1224578;75;2931976;-63
2023/11/12 10:56:33;;;;;;;3.05;2.05;;;;;;;14.76;49.28;97033.28;1224461;75;2914341;-68
2023/11/12 10:59:08;;;;;;;2.85;1.50;;;;;;;14.45;47.68;97037.38;1224011;75;2910175;-68
2023/11/12 11:01:41;;;;;;;2.20;1.30;;;;;;;15.83;43.72;97042.13;1225131;75;2932321;-66
2023/11/12 11:04:15;;;;;;;2.15;1.35;;;;;;;15.62;45.30;97031.63;1224229;75;2939185;-65
2023/11/12 11:06:50;;;;;;;2.20;1.50;;;;;;;15.46;45.79;97032.63;1224354;75;2910506;-65
2023/11/12 11:09:24;;;;;;;2.50;1.40;;;;;;;16.38;44.05;97028.66;1224400;75;2911813;-65
2023/11/12 11:11:57;;;;;;;1.45;0.90;;;;;;;18.27;41.30;97018.69;1225481;75;2909394;-64
2023/11/12 11:14:34;;;;;;;1.40;1.10;;;;;;;16.71;41.51;97012.69;1225224;75;2920842;-65
2023/11/12 11:17:08;;;;;;;1.75;0.80;;;;;;;17.12;41.65;97014.13;1225030;75;2908124;-64
2023/11/12 11:19:56;;;;;;;1.55;0.90;;;;;;;15.50;43.20;97013.75;1222784;75;2919603;-68
2023/11/12 11:22:32;;;;;;;1.50;0.90;;;;;;;16.47;41.47;97010.88;1224761;75;2934336;-66
2023/11/12 11:25:29;;;;;;;2.10;0.95;;;;;;;15.73;43.06;97005.91;1223343;75;2918434;-65
2023/11/12 11:28:24;;;;;;;5.25;0.75;;;;;;;16.07;42.19;97011.63;1223092;75;2918699;-65
2023/11/12 11:31:13;;;;;;;0.75;0.70;;;;;;;15.78;42.53;97002.31;1224622;75;2916690;-64
2023/11/12 11:33:53;;;;;;;0.95;0.70;;;;;;;15.39;43.36;97005.66;1223491;75;2926768;-67
2023/11/12 11:36:26;;;;;;;1.10;0.80;;;;;;;16.07;43.38;97008.84;1224986;75;2915572;-62
2023/11/12 11:39:28;;;;;;;1.70;0.80;;;;;;;15.18;42.83;97005.47;1225339;75;2915907;-65
2023/11/12 11:42:22;;;;;;;0.90;0.70;;;;;;;16.13;42.63;97001.19;1224847;75;2929292;-65
2023/11/12 11:44:55;;;;;;;1.80;1.00;;;;;;;16.02;43.22;97004.16;1225169;75;2912811;-63